sensor_id;sensor_type;location;lat;lon;timestamp;P1;durP1;ratioP1;P2;durP2;ratioP2
6902;SDS011;20232;49.408;8.702;2023-03-12T05:01:51;7.97;;;4.33;;
6902;SDS011;20232;49.408;8.702;2023-03-12T05:04:16;6.13;;;4.10;;
6902;SDS011;20232;49.408;8.702;2023-03-12T05:06:42;6.00;;;4.10;;
6902;SDS011;20232;49.408;8.702;2023-03-12T05:09:07;8.63;;;4.27;;
6902;SDS011;20232;49.408;8.702;2023-03-12T05:11:33;5.57;;;4.07;;
6902;SDS011;20232;49.408;8.702;2023-03-12T05:13:58;7.93;;;4.37;;
6902;SDS011;20232;49.408;8.702;2023-03-12T05:16:24;7.73;;;4.47;;
6902;SDS011;20232;49.408;8.702;2023-03-12T05:18:50;6.63;;;4.37;;
6902;SDS011;20232;49.408;8.702;2023-03-12T05:21:16;5.67;;;4.00;;
6902;SDS011;20232;49.408;8.702;2023-03-12T05:23:44;6.63;;;4.20;;
6902;SDS011;20232;49.408;8.702;2023-03-12T05:26:18;7.43;;;4.83;;
6902;SDS011;20232;49.408;8.702;2023-03-12T05:28:48;6.93;;;4.10;;
6902;SDS011;20232;49.408;8.702;2023-03-12T05:31:14;6.10;;;4.53;;
6902;SDS011;20232;49.408;8.702;2023-03-12T05:33:40;6.83;;;4.73;;
6902;SDS011;20232;49.408;8.702;2023-03-12T05:36:06;6.77;;;4.57;;
6902;SDS011;20232;49.408;8.702;2023-03-12T05:38:33;6.93;;;4.60;;
6902;SDS011;20232;49.408;8.702;2023-03-12T05:40:58;8.17;;;5.43;;
6902;SDS011;20232;49.408;8.702;2023-03-12T05:43:24;9.30;;;5.60;;
6902;SDS011;20232;49.408;8.702;2023-03-12T05:45:51;9.40;;;6.30;;
6902;SDS011;20232;49.408;8.702;2023-03-12T05:48:17;9.13;;;5.60;;
6902;SDS011;20232;49.408;8.702;2023-03-12T05:50:43;8.17;;;5.57;;
6902;SDS011;20232;49.408;8.702;2023-03-12T05:53:09;9.73;;;6.17;;
6902;SDS011;20232;49.408;8.702;2023-03-12T05:55:36;8.13;;;5.73;;
6902;SDS011;20232;49.408;8.702;2023-03-12T05:58:03;10.43;;;6.30;;
6902;SDS011;20232;49.408;8.702;2023-03-12T06:00:30;9.10;;;6.40;;
6902;SDS011;20232;49.408;8.702;2023-03-12T06:02:56;7.87;;;6.90;;
6902;SDS011;20232;49.408;8.702;2023-03-12T06:05:22;8.43;;;7.13;;
6902;SDS011;20232;49.408;8.702;2023-03-12T06:07:48;9.90;;;7.20;;
6902;SDS011;20232;49.408;8.702;2023-03-12T06:10:14;10.10;;;6.80;;
6902;SDS011;20232;49.408;8.702;2023-03-12T06:12:40;12.57;;;8.50;;
6902;SDS011;20232;49.408;8.702;2023-03-12T06:15:05;12.47;;;8.40;;
6902;SDS011;20232;49.408;8.702;2023-03-12T06:17:31;11.10;;;8.03;;
6902;SDS011;20232;49.408;8.702;2023-03-12T06:19:57;9.77;;;7.80;;
6902;SDS011;20232;49.408;8.702;2023-03-12T06:22:23;12.27;;;7.67;;
6902;SDS011;20232;49.408;8.702;2023-03-12T06:24:49;12.53;;;8.10;;
6902;SDS011;20232;49.408;8.702;2023-03-12T06:27:15;13.17;;;8.93;;
6902;SDS011;20232;49.408;8.702;2023-03-12T06:29:40;11.43;;;8.33;;
6902;SDS011;20232;49.408;8.702;2023-03-12T06:32:06;11.77;;;7.93;;
6902;SDS011;20232;49.408;8.702;2023-03-12T06:34:32;10.47;;;8.20;;
6902;SDS011;20232;49.408;8.702;2023-03-12T06:36:58;10.43;;;8.50;;
6902;SDS011;20232;49.408;8.702;2023-03-12T06:39:24;11.87;;;8.40;;
6902;SDS011;20232;49.408;8.702;2023-03-12T06:41:49;10.83;;;8.97;;
6902;SDS011;20232;49.408;8.702;2023-03-12T06:44:15;12.23;;;8.50;;
6902;SDS011;20232;49.408;8.702;2023-03-12T06:46:41;14.40;;;9.40;;
6902;SDS011;20232;49.408;8.702;2023-03-12T06:49:08;12.47;;;8.80;;
6902;SDS011;20232;49.408;8.702;2023-03-12T06:51:34;10.33;;;9.20;;
6902;SDS011;20232;49.408;8.702;2023-03-12T06:54:00;11.73;;;9.00;;
6902;SDS011;20232;49.408;8.702;2023-03-12T06:56:26;11.53;;;9.50;;
6902;SDS011;20232;49.408;8.702;2023-03-12T06:58:53;11.70;;;9.73;;
6902;SDS011;20232;49.408;8.702;2023-03-12T07:01:18;10.80;;;9.67;;
6902;SDS011;20232;49.408;8.702;2023-03-12T07:03:44;13.47;;;9.63;;
6902;SDS011;20232;49.408;8.702;2023-03-12T07:06:13;13.67;;;10.13;;
6902;SDS011;20232;49.408;8.702;2023-03-12T07:08:40;11.43;;;10.10;;
6902;SDS011;20232;49.408;8.702;2023-03-12T07:11:06;12.57;;;9.53;;
6902;SDS011;20232;49.408;8.702;2023-03-12T07:13:33;13.00;;;9.90;;
6902;SDS011;20232;49.408;8.702;2023-03-12T07:15:58;14.87;;;10.60;;
6902;SDS011;20232;49.408;8.702;2023-03-12T07:18:24;11.83;;;9.93;;
6902;SDS011;20232;49.408;8.702;2023-03-12T07:20:50;12.50;;;10.67;;
6902;SDS011;20232;49.408;8.702;2023-03-12T07:23:16;16.30;;;10.97;;
6902;SDS011;20232;49.408;8.702;2023-03-12T07:25:42;11.83;;;10.40;;
6902;SDS011;20232;49.408;8.702;2023-03-12T07:28:09;15.13;;;10.57;;
6902;SDS011;20232;49.408;8.702;2023-03-12T07:30:35;13.57;;;10.87;;
6902;SDS011;20232;49.408;8.702;2023-03-12T07:33:05;15.33;;;10.63;;
6902;SDS011;20232;49.408;8.702;2023-03-12T07:35:33;12.50;;;10.87;;
6902;SDS011;20232;49.408;8.702;2023-03-12T07:37:59;16.37;;;11.37;;
6902;SDS011;20232;49.408;8.702;2023-03-12T07:40:26;12.40;;;10.53;;
6902;SDS011;20232;49.408;8.702;2023-03-12T07:42:53;14.83;;;10.43;;
6902;SDS011;20232;49.408;8.702;2023-03-12T07:45:19;13.50;;;10.83;;
6902;SDS011;20232;49.408;8.702;2023-03-12T07:47:45;11.83;;;10.70;;
6902;SDS011;20232;49.408;8.702;2023-03-12T07:50:11;11.60;;;10.20;;
6902;SDS011;20232;49.408;8.702;2023-03-12T07:52:36;13.17;;;10.63;;
6902;SDS011;20232;49.408;8.702;2023-03-12T07:55:02;12.77;;;10.73;;
6902;SDS011;20232;49.408;8.702;2023-03-12T07:57:28;14.53;;;9.97;;
6902;SDS011;20232;49.408;8.702;2023-03-12T07:59:53;15.03;;;10.67;;
6902;SDS011;20232;49.408;8.702;2023-03-12T08:02:19;13.07;;;10.43;;
6902;SDS011;20232;49.408;8.702;2023-03-12T08:04:45;14.23;;;10.20;;
6902;SDS011;20232;49.408;8.702;2023-03-12T08:07:10;10.53;;;9.30;;
6902;SDS011;20232;49.408;8.702;2023-03-12T08:09:37;12.60;;;10.13;;
6902;SDS011;20232;49.408;8.702;2023-03-12T08:12:03;13.83;;;9.60;;
6902;SDS011;20232;49.408;8.702;2023-03-12T08:14:29;12.37;;;10.10;;
6902;SDS011;20232;49.408;8.702;2023-03-12T08:16:56;14.87;;;9.40;;
6902;SDS011;20232;49.408;8.702;2023-03-12T08:19:22;10.70;;;9.30;;
6902;SDS011;20232;49.408;8.702;2023-03-12T08:21:48;12.87;;;9.20;;
6902;SDS011;20232;49.408;8.702;2023-03-12T08:24:15;12.40;;;9.37;;
6902;SDS011;20232;49.408;8.702;2023-03-12T08:26:40;13.10;;;10.20;;
6902;SDS011;20232;49.408;8.702;2023-03-12T08:29:06;15.57;;;10.03;;
6902;SDS011;20232;49.408;8.702;2023-03-12T08:31:31;13.00;;;10.30;;
6902;SDS011;20232;49.408;8.702;2023-03-12T08:33:57;12.53;;;9.97;;
6902;SDS011;20232;49.408;8.702;2023-03-12T08:36:23;20.00;;;14.03;;
6902;SDS011;20232;49.408;8.702;2023-03-12T08:38:48;15.50;;;11.60;;
6902;SDS011;20232;49.408;8.702;2023-03-12T08:41:14;17.03;;;11.20;;
6902;SDS011;20232;49.408;8.702;2023-03-12T08:43:39;13.17;;;11.43;;
6902;SDS011;20232;49.408;8.702;2023-03-12T08:46:05;15.20;;;11.83;;
6902;SDS011;20232;49.408;8.702;2023-03-12T08:48:31;16.27;;;11.80;;
6902;SDS011;20232;49.408;8.702;2023-03-12T08:50:58;17.03;;;12.27;;
6902;SDS011;20232;49.408;8.702;2023-03-12T08:53:28;14.40;;;11.73;;
6902;SDS011;20232;49.408;8.702;2023-03-12T08:55:55;16.03;;;12.37;;
6902;SDS011;20232;49.408;8.702;2023-03-12T08:58:22;12.33;;;11.07;;
6902;SDS011;20232;49.408;8.702;2023-03-12T09:00:49;14.80;;;10.73;;
6902;SDS011;20232;49.408;8.702;2023-03-12T09:03:15;14.43;;;11.23;;
6902;SDS011;20232;49.408;8.702;2023-03-12T09:05:42;13.67;;;11.37;;
6902;SDS011;20232;49.408;8.702;2023-03-12T09:08:08;16.80;;;12.40;;
6902;SDS011;20232;49.408;8.702;2023-03-12T09:10:34;16.50;;;12.13;;
6902;SDS011;20232;49.408;8.702;2023-03-12T09:13:01;16.77;;;12.73;;
6902;SDS011;20232;49.408;8.702;2023-03-12T09:15:26;14.77;;;11.63;;
6902;SDS011;20232;49.408;8.702;2023-03-12T09:17:52;16.80;;;11.30;;
6902;SDS011;20232;49.408;8.702;2023-03-12T09:20:19;15.43;;;12.30;;
6902;SDS011;20232;49.408;8.702;2023-03-12T09:22:46;16.23;;;12.17;;
6902;SDS011;20232;49.408;8.702;2023-03-12T09:25:11;15.00;;;11.83;;
6902;SDS011;20232;49.408;8.702;2023-03-12T09:30:09;14.70;;;11.60;;
6902;SDS011;20232;49.408;8.702;2023-03-12T09:32:36;14.20;;;11.93;;
6902;SDS011;20232;49.408;8.702;2023-03-12T09:35:02;13.30;;;11.30;;
6902;SDS011;20232;49.408;8.702;2023-03-12T09:37:29;16.63;;;11.00;;
6902;SDS011;20232;49.408;8.702;2023-03-12T09:39:56;15.87;;;11.07;;
6902;SDS011;20232;49.408;8.702;2023-03-12T09:42:23;17.87;;;11.67;;
6902;SDS011;20232;49.408;8.702;2023-03-12T09:45:31;16.53;;;11.87;;
6902;SDS011;20232;49.408;8.702;2023-03-12T09:48:01;16.67;;;12.37;;
6902;SDS011;20232;49.408;8.702;2023-03-12T09:50:32;13.53;;;11.67;;
6902;SDS011;20232;49.408;8.702;2023-03-12T09:56:00;14.60;;;12.10;;
6902;SDS011;20232;49.408;8.702;2023-03-12T09:58:33;16.30;;;12.67;;
6902;SDS011;20232;49.408;8.702;2023-03-12T10:14:54;15.80;;;11.83;;
6902;SDS011;20232;49.408;8.702;2023-03-12T10:31:59;17.93;;;13.93;;
6902;SDS011;20232;49.408;8.702;2023-03-12T10:34:33;15.10;;;13.43;;
6902;SDS011;20232;49.408;8.702;2023-03-12T10:39:55;18.17;;;13.60;;
6902;SDS011;20232;49.408;8.702;2023-03-12T10:42:25;16.87;;;13.47;;
6902;SDS011;20232;49.408;8.702;2023-03-12T10:44:56;16.43;;;13.60;;
6902;SDS011;20232;49.408;8.702;2023-03-12T10:53:13;14.80;;;13.23;;
6902;SDS011;20232;49.408;8.702;2023-03-12T10:58:25;19.87;;;14.17;;
6902;SDS011;20232;49.408;8.702;2023-03-12T11:01:00;14.57;;;12.90;;
6902;SDS011;20232;49.408;8.702;2023-03-12T11:03:27;17.73;;;13.27;;
6902;SDS011;20232;49.408;8.702;2023-03-12T11:05:54;18.57;;;13.10;;
6902;SDS011;20232;49.408;8.702;2023-03-12T11:08:24;16.67;;;12.83;;
6902;SDS011;20232;49.408;8.702;2023-03-12T11:10:52;18.53;;;12.70;;
6902;SDS011;20232;49.408;8.702;2023-03-12T11:13:27;14.73;;;12.87;;
6902;SDS011;20232;49.408;8.702;2023-03-12T11:16:02;16.23;;;12.00;;
6902;SDS011;20232;49.408;8.702;2023-03-12T11:18:59;14.70;;;12.70;;
6902;SDS011;20232;49.408;8.702;2023-03-12T11:21:28;15.73;;;12.70;;
6902;SDS011;20232;49.408;8.702;2023-03-12T11:26:22;15.67;;;13.60;;
6902;SDS011;20232;49.408;8.702;2023-03-12T11:28:58;16.47;;;12.70;;
6902;SDS011;20232;49.408;8.702;2023-03-12T11:31:28;19.03;;;14.20;;
6902;SDS011;20232;49.408;8.702;2023-03-12T11:33:59;15.83;;;14.13;;
6902;SDS011;20232;49.408;8.702;2023-03-12T11:59:41;18.27;;;14.27;;
6902;SDS011;20232;49.408;8.702;2023-03-12T12:04:24;13.33;;;11.60;;
6902;SDS011;20232;49.408;8.702;2023-03-12T12:07:05;15.77;;;13.20;;
6902;SDS011;20232;49.408;8.702;2023-03-12T12:12:25;14.67;;;12.13;;
6902;SDS011;20232;49.408;8.702;2023-03-12T12:15:07;14.03;;;11.37;;
6902;SDS011;20232;49.408;8.702;2023-03-12T12:23:40;15.83;;;11.70;;
6902;SDS011;20232;49.408;8.702;2023-03-12T12:29:14;14.63;;;12.90;;
6902;SDS011;20232;49.408;8.702;2023-03-12T12:31:58;15.20;;;12.90;;
6902;SDS011;20232;49.408;8.702;2023-03-12T12:37:42;16.87;;;13.00;;
6902;SDS011;20232;49.408;8.702;2023-03-12T12:40:34;17.03;;;13.33;;
6902;SDS011;20232;49.408;8.702;2023-03-12T12:43:13;15.67;;;13.00;;
6902;SDS011;20232;49.408;8.702;2023-03-12T12:46:00;20.13;;;13.67;;
6902;SDS011;20232;49.408;8.702;2023-03-12T12:51:16;15.47;;;13.87;;
6902;SDS011;20232;49.408;8.702;2023-03-12T12:53:47;19.60;;;14.50;;
6902;SDS011;20232;49.408;8.702;2023-03-12T12:56:31;15.73;;;13.90;;
6902;SDS011;20232;49.408;8.702;2023-03-12T13:01:55;17.93;;;13.90;;
6902;SDS011;20232;49.408;8.702;2023-03-12T13:04:23;18.30;;;14.10;;
6902;SDS011;20232;49.408;8.702;2023-03-12T13:12:12;18.03;;;14.90;;
6902;SDS011;20232;49.408;8.702;2023-03-12T13:14:44;19.40;;;15.67;;
6902;SDS011;20232;49.408;8.702;2023-03-12T13:19:44;18.03;;;15.27;;
6902;SDS011;20232;49.408;8.702;2023-03-12T13:22:14;21.20;;;15.67;;
6902;SDS011;20232;49.408;8.702;2023-03-12T13:27:59;17.20;;;14.87;;
6902;SDS011;20232;49.408;8.702;2023-03-12T13:32:00;18.67;;;14.53;;
6902;SDS011;20232;49.408;8.702;2023-03-12T13:36:58;22.20;;;14.60;;
6902;SDS011;20232;49.408;8.702;2023-03-12T13:39:34;19.60;;;14.77;;
6902;SDS011;20232;49.408;8.702;2023-03-12T13:42:24;20.53;;;15.20;;
6902;SDS011;20232;49.408;8.702;2023-03-12T13:44:46;18.53;;;14.63;;
6902;SDS011;20232;49.408;8.702;2023-03-12T13:47:26;19.50;;;14.90;;
6902;SDS011;20232;49.408;8.702;2023-03-12T13:50:04;18.23;;;14.73;;
6902;SDS011;20232;49.408;8.702;2023-03-12T13:55:19;16.30;;;12.73;;
6902;SDS011;20232;49.408;8.702;2023-03-12T13:57:57;13.57;;;11.90;;
6902;SDS011;20232;49.408;8.702;2023-03-12T14:00:31;15.20;;;13.60;;
6902;SDS011;20232;49.408;8.702;2023-03-12T14:03:13;15.03;;;11.90;;
6902;SDS011;20232;49.408;8.702;2023-03-12T14:05:51;13.57;;;11.33;;
6902;SDS011;20232;49.408;8.702;2023-03-12T14:16:45;12.07;;;9.80;;
6902;SDS011;20232;49.408;8.702;2023-03-12T14:19:13;11.60;;;9.30;;
6902;SDS011;20232;49.408;8.702;2023-03-12T14:21:42;10.60;;;9.27;;
6902;SDS011;20232;49.408;8.702;2023-03-12T14:24:23;12.87;;;10.30;;
6902;SDS011;20232;49.408;8.702;2023-03-12T14:26:53;12.90;;;10.77;;
6902;SDS011;20232;49.408;8.702;2023-03-12T14:32:30;16.60;;;12.03;;
6902;SDS011;20232;49.408;8.702;2023-03-12T14:34:58;11.73;;;10.10;;
6902;SDS011;20232;49.408;8.702;2023-03-12T14:38:02;14.10;;;10.27;;
6902;SDS011;20232;49.408;8.702;2023-03-12T14:40:37;15.53;;;10.47;;
6902;SDS011;20232;49.408;8.702;2023-03-12T14:43:18;13.73;;;6.23;;
6902;SDS011;20232;49.408;8.702;2023-03-12T14:45:43;11.27;;;4.20;;
6902;SDS011;20232;49.408;8.702;2023-03-12T14:48:09;12.43;;;3.77;;
6902;SDS011;20232;49.408;8.702;2023-03-12T14:50:36;15.20;;;4.07;;
6902;SDS011;20232;49.408;8.702;2023-03-12T14:53:37;10.17;;;3.50;;
6902;SDS011;20232;49.408;8.702;2023-03-12T14:56:00;12.97;;;3.90;;
6902;SDS011;20232;49.408;8.702;2023-03-12T14:58:29;14.13;;;4.13;;
6902;SDS011;20232;49.408;8.702;2023-03-12T15:00:57;16.53;;;4.10;;
6902;SDS011;20232;49.408;8.702;2023-03-12T15:03:25;15.30;;;4.60;;
6902;SDS011;20232;49.408;8.702;2023-03-12T15:05:52;15.80;;;4.60;;
6902;SDS011;20232;49.408;8.702;2023-03-12T15:08:18;14.63;;;4.10;;
6902;SDS011;20232;49.408;8.702;2023-03-12T15:10:48;13.50;;;3.90;;
6902;SDS011;20232;49.408;8.702;2023-03-12T15:13:15;14.93;;;4.43;;
6902;SDS011;20232;49.408;8.702;2023-03-12T15:15:44;12.23;;;3.90;;
6902;SDS011;20232;49.408;8.702;2023-03-12T15:18:16;13.83;;;4.30;;
6902;SDS011;20232;49.408;8.702;2023-03-12T15:20:53;12.53;;;3.83;;
6902;SDS011;20232;49.408;8.702;2023-03-12T15:23:20;15.87;;;4.43;;
6902;SDS011;20232;49.408;8.702;2023-03-12T15:26:06;17.03;;;4.87;;
6902;SDS011;20232;49.408;8.702;2023-03-12T15:31:40;12.63;;;4.20;;
6902;SDS011;20232;49.408;8.702;2023-03-12T15:34:11;14.73;;;4.73;;
6902;SDS011;20232;49.408;8.702;2023-03-12T15:36:47;12.57;;;4.27;;
6902;SDS011;20232;49.408;8.702;2023-03-12T15:42:08;16.97;;;4.50;;
6902;SDS011;20232;49.408;8.702;2023-03-12T15:44:50;16.33;;;4.07;;
6902;SDS011;20232;49.408;8.702;2023-03-12T15:47:21;14.83;;;4.20;;
6902;SDS011;20232;49.408;8.702;2023-03-12T15:50:00;16.77;;;4.93;;
6902;SDS011;20232;49.408;8.702;2023-03-12T15:52:32;16.10;;;4.30;;
6902;SDS011;20232;49.408;8.702;2023-03-12T15:57:46;20.20;;;4.93;;
6902;SDS011;20232;49.408;8.702;2023-03-12T16:00:15;20.23;;;5.20;;
6902;SDS011;20232;49.408;8.702;2023-03-12T16:05:10;16.43;;;4.70;;
6902;SDS011;20232;49.408;8.702;2023-03-12T16:07:36;12.70;;;4.63;;
6902;SDS011;20232;49.408;8.702;2023-03-12T16:10:03;13.40;;;5.10;;
6902;SDS011;20232;49.408;8.702;2023-03-12T16:12:29;18.57;;;5.10;;
6902;SDS011;20232;49.408;8.702;2023-03-12T16:14:54;21.43;;;5.53;;
6902;SDS011;20232;49.408;8.702;2023-03-12T16:17:21;14.27;;;4.87;;
6902;SDS011;20232;49.408;8.702;2023-03-12T16:19:47;13.70;;;4.27;;
6902;SDS011;20232;49.408;8.702;2023-03-12T16:22:13;18.47;;;5.00;;
6902;SDS011;20232;49.408;8.702;2023-03-12T16:24:38;16.10;;;5.20;;
6902;SDS011;20232;49.408;8.702;2023-03-12T16:27:04;15.57;;;5.00;;
6902;SDS011;20232;49.408;8.702;2023-03-12T16:29:35;16.57;;;4.77;;
6902;SDS011;20232;49.408;8.702;2023-03-12T16:32:02;13.13;;;4.37;;
6902;SDS011;20232;49.408;8.702;2023-03-12T16:34:38;14.40;;;4.43;;
6902;SDS011;20232;49.408;8.702;2023-03-12T16:37:04;13.93;;;5.27;;
6902;SDS011;20232;49.408;8.702;2023-03-12T16:39:33;14.53;;;4.80;;
6902;SDS011;20232;49.408;8.702;2023-03-12T16:41:59;17.00;;;5.33;;
6902;SDS011;20232;49.408;8.702;2023-03-12T16:44:26;16.33;;;4.53;;
6902;SDS011;20232;49.408;8.702;2023-03-12T16:46:55;13.87;;;5.13;;
6902;SDS011;20232;49.408;8.702;2023-03-12T16:49:21;18.17;;;5.13;;
6902;SDS011;20232;49.408;8.702;2023-03-12T16:51:47;17.20;;;5.00;;
6902;SDS011;20232;49.408;8.702;2023-03-12T16:54:13;16.13;;;4.80;;
6902;SDS011;20232;49.408;8.702;2023-03-12T16:56:42;18.13;;;4.80;;
6902;SDS011;20232;49.408;8.702;2023-03-12T16:59:21;12.37;;;4.23;;
6902;SDS011;20232;49.408;8.702;2023-03-12T17:01:49;16.73;;;4.33;;
6902;SDS011;20232;49.408;8.702;2023-03-12T17:04:15;15.70;;;4.50;;
6902;SDS011;20232;49.408;8.702;2023-03-12T17:06:40;16.17;;;4.60;;
6902;SDS011;20232;49.408;8.702;2023-03-12T17:09:06;16.03;;;4.90;;
6902;SDS011;20232;49.408;8.702;2023-03-12T17:11:32;17.40;;;4.63;;
6902;SDS011;20232;49.408;8.702;2023-03-12T17:14:00;16.70;;;4.80;;
6902;SDS011;20232;49.408;8.702;2023-03-12T17:16:39;16.17;;;4.93;;
6902;SDS011;20232;49.408;8.702;2023-03-12T17:19:04;16.53;;;5.07;;
6902;SDS011;20232;49.408;8.702;2023-03-12T17:21:30;15.00;;;4.63;;
6902;SDS011;20232;49.408;8.702;2023-03-12T17:23:55;16.67;;;5.20;;
6902;SDS011;20232;49.408;8.702;2023-03-12T17:26:21;22.30;;;4.93;;
6902;SDS011;20232;49.408;8.702;2023-03-12T17:28:47;21.07;;;5.27;;
6902;SDS011;20232;49.408;8.702;2023-03-12T17:31:12;16.97;;;5.17;;
6902;SDS011;20232;49.408;8.702;2023-03-12T17:33:38;14.27;;;4.53;;
6902;SDS011;20232;49.408;8.702;2023-03-12T17:36:05;14.73;;;4.63;;
6902;SDS011;20232;49.408;8.702;2023-03-12T17:38:32;16.20;;;5.57;;
6902;SDS011;20232;49.408;8.702;2023-03-12T17:40:58;16.53;;;4.83;;
6902;SDS011;20232;49.408;8.702;2023-03-12T17:43:24;18.30;;;5.23;;
6902;SDS011;20232;49.408;8.702;2023-03-12T17:45:51;17.30;;;5.40;;
6902;SDS011;20232;49.408;8.702;2023-03-12T17:48:16;14.43;;;4.73;;
6902;SDS011;20232;49.408;8.702;2023-03-12T17:50:43;17.97;;;5.07;;
6902;SDS011;20232;49.408;8.702;2023-03-12T17:53:09;19.10;;;5.10;;
6902;SDS011;20232;49.408;8.702;2023-03-12T17:55:35;17.27;;;4.90;;
6902;SDS011;20232;49.408;8.702;2023-03-12T17:58:00;17.17;;;5.03;;
6902;SDS011;20232;49.408;8.702;2023-03-12T18:00:27;18.57;;;4.70;;
6902;SDS011;20232;49.408;8.702;2023-03-12T18:02:53;12.80;;;4.57;;
6902;SDS011;20232;49.408;8.702;2023-03-12T18:05:19;16.53;;;5.00;;
6902;SDS011;20232;49.408;8.702;2023-03-12T18:07:45;15.20;;;4.63;;
6902;SDS011;20232;49.408;8.702;2023-03-12T18:10:11;16.13;;;4.57;;
6902;SDS011;20232;49.408;8.702;2023-03-12T18:12:37;16.10;;;5.27;;
6902;SDS011;20232;49.408;8.702;2023-03-12T18:15:07;16.97;;;4.70;;
6902;SDS011;20232;49.408;8.702;2023-03-12T18:17:37;17.40;;;5.23;;
6902;SDS011;20232;49.408;8.702;2023-03-12T18:20:03;17.10;;;5.37;;
6902;SDS011;20232;49.408;8.702;2023-03-12T18:22:33;17.83;;;5.23;;
6902;SDS011;20232;49.408;8.702;2023-03-12T18:25:02;16.07;;;5.00;;
6902;SDS011;20232;49.408;8.702;2023-03-12T18:27:28;17.03;;;4.83;;
6902;SDS011;20232;49.408;8.702;2023-03-12T18:29:54;17.53;;;4.97;;
6902;SDS011;20232;49.408;8.702;2023-03-12T18:32:19;12.80;;;5.03;;
6902;SDS011;20232;49.408;8.702;2023-03-12T18:34:45;18.70;;;5.23;;
6902;SDS011;20232;49.408;8.702;2023-03-12T18:37:11;18.50;;;4.43;;
6902;SDS011;20232;49.408;8.702;2023-03-12T18:39:37;19.13;;;5.43;;
6902;SDS011;20232;49.408;8.702;2023-03-12T18:42:03;14.93;;;5.23;;
6902;SDS011;20232;49.408;8.702;2023-03-12T18:44:29;18.53;;;5.00;;
6902;SDS011;20232;49.408;8.702;2023-03-12T18:46:54;14.23;;;4.47;;
6902;SDS011;20232;49.408;8.702;2023-03-12T18:49:20;16.80;;;4.97;;
6902;SDS011;20232;49.408;8.702;2023-03-12T18:51:46;17.20;;;5.13;;
6902;SDS011;20232;49.408;8.702;2023-03-12T18:54:11;15.67;;;4.67;;
6902;SDS011;20232;49.408;8.702;2023-03-12T18:56:37;15.23;;;5.10;;
6902;SDS011;20232;49.408;8.702;2023-03-12T18:59:04;20.20;;;5.17;;
6902;SDS011;20232;49.408;8.702;2023-03-12T19:01:31;16.17;;;5.70;;
6902;SDS011;20232;49.408;8.702;2023-03-12T19:03:57;15.37;;;4.77;;
6902;SDS011;20232;49.408;8.702;2023-03-12T19:06:23;16.73;;;4.87;;
6902;SDS011;20232;49.408;8.702;2023-03-12T19:08:48;15.13;;;4.50;;
6902;SDS011;20232;49.408;8.702;2023-03-12T19:11:14;15.93;;;4.57;;
6902;SDS011;20232;49.408;8.702;2023-03-12T19:13:40;13.00;;;4.37;;
6902;SDS011;20232;49.408;8.702;2023-03-12T19:16:08;15.03;;;4.57;;
6902;SDS011;20232;49.408;8.702;2023-03-12T19:18:35;23.23;;;10.60;;
6902;SDS011;20232;49.408;8.702;2023-03-12T19:21:02;24.50;;;5.63;;
6902;SDS011;20232;49.408;8.702;2023-03-12T19:23:28;14.67;;;5.27;;
6902;SDS011;20232;49.408;8.702;2023-03-12T19:25:54;14.30;;;5.10;;
6902;SDS011;20232;49.408;8.702;2023-03-12T19:28:20;16.10;;;4.67;;
6902;SDS011;20232;49.408;8.702;2023-03-12T19:30:45;18.73;;;5.23;;
6902;SDS011;20232;49.408;8.702;2023-03-12T19:33:11;17.97;;;5.20;;
6902;SDS011;20232;49.408;8.702;2023-03-12T19:35:39;17.23;;;4.80;;
6902;SDS011;20232;49.408;8.702;2023-03-12T19:38:06;15.77;;;4.60;;
6902;SDS011;20232;49.408;8.702;2023-03-12T19:40:32;18.20;;;5.07;;
6902;SDS011;20232;49.408;8.702;2023-03-12T19:42:58;15.03;;;5.17;;
6902;SDS011;20232;49.408;8.702;2023-03-12T19:45:24;17.47;;;5.20;;
6902;SDS011;20232;49.408;8.702;2023-03-12T19:47:50;15.20;;;4.90;;
6902;SDS011;20232;49.408;8.702;2023-03-12T19:50:16;16.63;;;4.47;;
6902;SDS011;20232;49.408;8.702;2023-03-12T19:52:46;19.93;;;4.80;;
6902;SDS011;20232;49.408;8.702;2023-03-12T19:55:11;14.40;;;4.30;;
6902;SDS011;20232;49.408;8.702;2023-03-12T19:57:38;16.93;;;5.33;;
6902;SDS011;20232;49.408;8.702;2023-03-12T20:00:04;18.00;;;5.20;;
6902;SDS011;20232;49.408;8.702;2023-03-12T20:02:33;18.23;;;5.03;;
6902;SDS011;20232;49.408;8.702;2023-03-12T20:05:00;18.77;;;5.90;;
6902;SDS011;20232;49.408;8.702;2023-03-12T20:07:26;14.97;;;5.60;;
6902;SDS011;20232;49.408;8.702;2023-03-12T20:09:51;16.93;;;4.80;;
6902;SDS011;20232;49.408;8.702;2023-03-12T20:12:17;18.17;;;4.83;;
6902;SDS011;20232;49.408;8.702;2023-03-12T20:14:43;18.43;;;5.73;;
6902;SDS011;20232;49.408;8.702;2023-03-12T20:17:08;15.63;;;5.10;;
6902;SDS011;20232;49.408;8.702;2023-03-12T20:19:36;14.47;;;5.03;;
6902;SDS011;20232;49.408;8.702;2023-03-12T20:22:02;14.63;;;4.77;;
6902;SDS011;20232;49.408;8.702;2023-03-12T20:24:28;16.50;;;5.20;;
6902;SDS011;20232;49.408;8.702;2023-03-12T20:26:54;15.13;;;5.43;;
6902;SDS011;20232;49.408;8.702;2023-03-12T20:29:19;21.17;;;8.93;;
6902;SDS011;20232;49.408;8.702;2023-03-12T20:31:45;17.93;;;8.17;;
6902;SDS011;20232;49.408;8.702;2023-03-12T20:34:11;20.40;;;8.47;;
6902;SDS011;20232;49.408;8.702;2023-03-12T20:36:36;17.33;;;8.30;;
6902;SDS011;20232;49.408;8.702;2023-03-12T20:39:02;18.30;;;7.13;;
6902;SDS011;20232;49.408;8.702;2023-03-12T20:41:28;14.17;;;5.80;;
6902;SDS011;20232;49.408;8.702;2023-03-12T20:43:55;17.03;;;4.87;;
6902;SDS011;20232;49.408;8.702;2023-03-12T20:46:21;16.07;;;5.47;;
6902;SDS011;20232;49.408;8.702;2023-03-12T20:48:47;14.73;;;4.60;;
6902;SDS011;20232;49.408;8.702;2023-03-12T20:51:13;13.10;;;4.50;;
6902;SDS011;20232;49.408;8.702;2023-03-12T20:53:38;17.67;;;5.00;;
6902;SDS011;20232;49.408;8.702;2023-03-12T20:56:04;19.77;;;5.40;;
6902;SDS011;20232;49.408;8.702;2023-03-12T20:58:30;17.47;;;4.90;;
6902;SDS011;20232;49.408;8.702;2023-03-12T21:00:55;19.23;;;5.20;;
6902;SDS011;20232;49.408;8.702;2023-03-12T21:03:24;17.97;;;4.97;;
6902;SDS011;20232;49.408;8.702;2023-03-12T21:05:57;15.83;;;5.30;;
6902;SDS011;20232;49.408;8.702;2023-03-12T21:08:24;18.57;;;5.07;;
6902;SDS011;20232;49.408;8.702;2023-03-12T21:10:50;13.37;;;4.23;;
6902;SDS011;20232;49.408;8.702;2023-03-12T21:13:17;18.90;;;4.83;;
6902;SDS011;20232;49.408;8.702;2023-03-12T21:15:43;15.07;;;4.63;;
6902;SDS011;20232;49.408;8.702;2023-03-12T21:18:10;16.17;;;4.60;;
6902;SDS011;20232;49.408;8.702;2023-03-12T21:20:36;20.07;;;5.23;;
6902;SDS011;20232;49.408;8.702;2023-03-12T21:23:02;16.20;;;3.90;;
6902;SDS011;20232;49.408;8.702;2023-03-12T21:25:33;15.00;;;5.13;;
6902;SDS011;20232;49.408;8.702;2023-03-12T21:27:59;13.10;;;4.50;;
6902;SDS011;20232;49.408;8.702;2023-03-12T21:30:25;13.53;;;4.73;;
6902;SDS011;20232;49.408;8.702;2023-03-12T21:32:51;15.77;;;4.93;;
6902;SDS011;20232;49.408;8.702;2023-03-12T21:35:16;16.93;;;5.70;;
6902;SDS011;20232;49.408;8.702;2023-03-12T21:37:44;13.77;;;4.70;;
6902;SDS011;20232;49.408;8.702;2023-03-12T21:40:10;19.07;;;5.07;;
6902;SDS011;20232;49.408;8.702;2023-03-12T21:42:37;13.23;;;4.90;;
6902;SDS011;20232;49.408;8.702;2023-03-12T21:45:03;15.70;;;4.77;;
6902;SDS011;20232;49.408;8.702;2023-03-12T21:47:29;16.50;;;4.90;;
6902;SDS011;20232;49.408;8.702;2023-03-12T21:49:54;14.87;;;4.43;;
6902;SDS011;20232;49.408;8.702;2023-03-12T21:52:20;14.47;;;4.57;;
6902;SDS011;20232;49.408;8.702;2023-03-12T21:54:46;17.03;;;5.37;;
6902;SDS011;20232;49.408;8.702;2023-03-12T21:57:11;20.33;;;4.93;;
6902;SDS011;20232;49.408;8.702;2023-03-12T21:59:37;15.23;;;4.63;;
6902;SDS011;20232;49.408;8.702;2023-03-12T22:02:02;14.07;;;4.33;;
6902;SDS011;20232;49.408;8.702;2023-03-12T22:04:28;13.40;;;4.47;;